createdAt,value
2019-05-02T00:01:18.502Z,30.53
2019-05-02T00:03:45.311Z,32.20
2019-05-02T00:06:11.991Z,33.03
2019-05-02T00:08:39.252Z,32.50
2019-05-02T00:11:06.170Z,31.40
2019-05-02T00:13:32.742Z,32.67
2019-05-02T00:15:59.362Z,32.03
2019-05-02T00:18:31.964Z,32.67
2019-05-02T00:20:57.175Z,36.63
2019-05-02T00:23:28.095Z,34.77
2019-05-02T00:25:54.774Z,33.00
2019-05-02T00:28:21.740Z,35.13
2019-05-02T00:30:48.351Z,34.43
2019-05-02T00:33:14.858Z,34.17
2019-05-02T00:35:46.256Z,34.80
2019-05-02T00:38:10.127Z,36.67
2019-05-02T00:40:36.596Z,32.60
2019-05-02T00:43:03.757Z,39.80
2019-05-02T00:45:30.290Z,36.00
2019-05-02T00:48:03.021Z,34.93
2019-05-02T00:50:34.570Z,44.23
2019-05-02T00:53:01.032Z,31.20
2019-05-02T00:55:28.830Z,36.97
2019-05-02T00:57:56.969Z,32.50
2019-05-02T01:00:23.556Z,39.20
2019-05-02T01:02:54.837Z,39.67
2019-05-02T01:05:21.460Z,34.83
2019-05-02T01:07:47.996Z,32.77
2019-05-02T01:10:17.211Z,41.97
2019-05-02T01:12:44.473Z,34.00
2019-05-02T01:15:12.715Z,36.40
2019-05-02T01:17:39.654Z,38.13
2019-05-02T01:20:07.253Z,40.13
2019-05-02T01:22:34.059Z,41.63
2019-05-02T01:25:00.768Z,37.73
2019-05-02T01:27:36.108Z,40.63
2019-05-02T01:30:16.406Z,38.20
2019-05-02T01:32:50.058Z,38.43
2019-05-02T01:35:27.014Z,37.17
2019-05-02T01:38:16.270Z,39.13
2019-05-02T01:40:53.357Z,40.60
2019-05-02T01:43:28.882Z,38.53
2019-05-02T01:45:55.517Z,40.70
2019-05-02T01:48:22.259Z,43.03
2019-05-02T01:50:49.884Z,40.90
2019-05-02T01:53:16.537Z,39.23
2019-05-02T01:55:43.048Z,40.83
2019-05-02T01:58:09.716Z,39.47
2019-05-02T02:00:36.170Z,40.93
2019-05-02T02:03:04.281Z,41.67
2019-05-02T02:05:32.294Z,38.03
2019-05-02T02:08:00.132Z,45.63
2019-05-02T02:10:26.735Z,40.87
2019-05-02T02:13:03.375Z,44.63
2019-05-02T02:15:25.172Z,37.23
2019-05-02T02:17:51.522Z,42.03
2019-05-02T02:20:21.094Z,49.30
2019-05-02T02:22:58.211Z,43.50
2019-05-02T02:25:32.181Z,40.60
2019-05-02T02:28:01.009Z,42.70
2019-05-02T02:30:27.773Z,42.40
2019-05-02T02:33:00.684Z,46.27
2019-05-02T02:35:22.866Z,46.53
2019-05-02T02:37:53.097Z,44.07
2019-05-02T02:40:17.810Z,48.60
2019-05-02T02:42:44.439Z,48.87
2019-05-02T02:45:28.403Z,46.70
2019-05-02T02:48:00.005Z,49.20
2019-05-02T02:50:23.295Z,49.37
2019-05-02T02:52:49.791Z,51.43
2019-05-02T02:55:22.065Z,50.57
2019-05-02T02:57:44.809Z,44.10
2019-05-02T03:00:11.572Z,55.40
2019-05-02T03:02:47.813Z,53.47
2019-05-02T03:05:08.075Z,58.57
2019-05-02T03:07:34.838Z,54.83
2019-05-02T03:10:05.974Z,52.37
2019-05-02T03:12:49.231Z,54.50
2019-05-02T03:15:21.019Z,59.17
2019-05-02T03:17:46.117Z,59.77
2019-05-02T03:20:12.825Z,55.43
2019-05-02T03:22:41.825Z,58.07
2019-05-02T03:25:08.984Z,56.90
2019-05-02T03:27:37.483Z,57.70
2019-05-02T03:30:04.693Z,60.43
2019-05-02T03:32:35.160Z,59.60
2019-05-02T03:34:59.737Z,63.47
2019-05-02T03:37:26.493Z,59.37
2019-05-02T03:40:00.245Z,60.53
2019-05-02T03:42:22.698Z,58.57
2019-05-02T03:44:55.765Z,53.97
2019-05-02T03:47:18.528Z,61.57
2019-05-02T03:49:48.550Z,58.30
2019-05-02T03:52:15.255Z,60.73
2019-05-02T03:54:50.097Z,59.67
2019-05-02T03:57:10.877Z,56.27
2019-05-02T03:59:39.718Z,58.63
2019-05-02T04:02:05.910Z,55.03
2019-05-02T04:04:32.699Z,59.67
2019-05-02T04:07:01.075Z,67.67
2019-05-02T04:09:38.932Z,64.17
2019-05-02T04:12:03.250Z,64.93
2019-05-02T04:14:37.753Z,64.17
2019-05-02T04:17:01.415Z,58.00
2019-05-02T04:19:34.865Z,65.73
2019-05-02T04:22:07.893Z,60.63
2019-05-02T04:24:32.687Z,63.93
2019-05-02T04:26:59.490Z,68.27
2019-05-02T04:29:31.357Z,61.50
2019-05-02T04:31:54.340Z,62.87
2019-05-02T04:34:20.789Z,66.60
2019-05-02T04:37:00.754Z,70.20
2019-05-02T04:39:22.261Z,65.70
2019-05-02T04:41:48.864Z,68.93
2019-05-02T04:44:15.606Z,63.07
2019-05-02T04:46:42.092Z,62.67
2019-05-02T04:49:09.276Z,62.90
2019-05-02T04:51:38.112Z,69.80
2019-05-02T04:54:04.673Z,60.50
2019-05-02T04:56:31.125Z,61.67
2019-05-02T04:59:01.190Z,62.40
2019-05-02T05:01:33.139Z,58.57
2019-05-02T05:03:58.244Z,62.73
2019-05-02T05:06:22.942Z,66.73
2019-05-02T05:08:49.451Z,66.77
2019-05-02T05:11:20.863Z,64.17
2019-05-02T05:13:44.294Z,68.23
2019-05-02T05:16:15.656Z,62.07
2019-05-02T05:18:43.920Z,60.77
2019-05-02T05:21:10.654Z,66.27
2019-05-02T05:24:14.826Z,64.73
2019-05-02T05:26:44.955Z,65.80
2019-05-02T05:29:13.965Z,65.93
2019-05-02T05:31:39.970Z,66.57
2019-05-02T05:34:08.021Z,64.63
2019-05-02T05:36:34.960Z,64.33
2019-05-02T05:39:08.520Z,69.27
2019-05-02T05:41:33.001Z,65.03
2019-05-02T05:43:59.448Z,67.73
2019-05-02T05:46:27.987Z,63.67
2019-05-02T05:48:55.061Z,69.03
2019-05-02T05:51:21.559Z,63.57
2019-05-02T05:53:52.235Z,59.97
2019-05-02T05:56:18.014Z,64.93
2019-05-02T05:58:50.560Z,61.10
2019-05-02T06:01:13.257Z,57.73
2019-05-02T06:03:44.628Z,60.50
2019-05-02T06:06:10.257Z,65.10
2019-05-02T06:08:37.947Z,68.37
2019-05-02T06:11:04.554Z,58.90
2019-05-02T06:13:31.054Z,65.43
2019-05-02T06:16:02.660Z,59.60
2019-05-02T06:18:28.442Z,58.67
2019-05-02T06:20:56.835Z,69.70
2019-05-02T06:23:23.413Z,65.40
2019-05-02T06:25:49.924Z,60.30
2019-05-02T06:28:16.829Z,65.57
2019-05-02T06:30:43.617Z,61.37
2019-05-02T06:33:10.369Z,61.07
2019-05-02T06:35:37.948Z,59.53
2019-05-02T06:38:04.489Z,62.63
2019-05-02T06:40:30.952Z,59.37
2019-05-02T06:42:57.395Z,66.60
2019-05-02T06:45:25.082Z,61.73
2019-05-02T06:47:51.664Z,67.10
2019-05-02T06:50:18.212Z,60.50
2019-05-02T06:52:44.957Z,63.03
2019-05-02T06:55:15.786Z,60.83
2019-05-02T06:57:42.270Z,59.60
2019-05-02T07:00:10.276Z,64.37
2019-05-02T07:02:36.830Z,58.73
2019-05-02T07:05:04.742Z,57.07
2019-05-02T07:07:36.895Z,58.90
2019-05-02T07:10:00.019Z,57.47
2019-05-02T07:12:26.612Z,58.90
2019-05-02T07:14:56.128Z,62.53
2019-05-02T07:17:41.567Z,61.23
2019-05-02T07:20:08.533Z,60.83
2019-05-02T07:22:38.636Z,63.50
2019-05-02T07:25:06.873Z,54.53
2019-05-02T07:27:33.684Z,53.23
2019-05-02T07:30:01.951Z,55.50
2019-05-02T07:32:28.427Z,52.83
2019-05-02T07:34:55.148Z,56.37
2019-05-02T07:37:21.680Z,53.50
2019-05-02T07:39:48.171Z,54.07
2019-05-02T07:42:16.721Z,55.03
2019-05-02T07:44:43.339Z,57.60
2019-05-02T07:47:09.798Z,56.47
2019-05-02T07:49:36.679Z,50.87
2019-05-02T07:52:07.899Z,57.97
2019-05-02T07:54:34.703Z,57.70
2019-05-02T07:57:02.442Z,57.50
2019-05-02T07:59:29.211Z,54.27
2019-05-02T08:01:55.665Z,54.80
2019-05-02T08:04:22.430Z,54.90
2019-05-02T08:06:49.247Z,51.73
2019-05-02T08:09:15.783Z,54.67
2019-05-02T08:11:42.344Z,53.40
2019-05-02T08:14:09.429Z,51.10
2019-05-02T08:16:35.973Z,52.23
2019-05-02T08:19:05.462Z,46.57
2019-05-02T08:21:32.516Z,48.90
2019-05-02T08:24:02.264Z,52.23
2019-05-02T08:26:46.382Z,50.57
2019-05-02T08:29:13.211Z,43.40
2019-05-02T08:31:39.670Z,44.67
2019-05-02T08:34:14.731Z,46.73
2019-05-02T08:36:34.708Z,45.80
2019-05-02T08:39:01.167Z,47.37
2019-05-02T08:41:27.833Z,49.53
2019-05-02T08:43:54.666Z,40.87
2019-05-02T08:46:21.125Z,44.50
2019-05-02T08:48:50.547Z,40.40
2019-05-02T08:51:16.399Z,43.47
2019-05-02T08:53:42.877Z,40.97
2019-05-02T08:56:09.338Z,44.57
2019-05-02T08:58:35.832Z,43.73
2019-05-02T09:01:02.421Z,46.30
2019-05-02T09:03:28.967Z,42.20
2019-05-02T09:06:05.305Z,46.70
2019-05-02T09:08:24.123Z,46.47
2019-05-02T09:10:50.634Z,44.70
2019-05-02T09:13:23.513Z,42.97
2019-05-02T09:15:51.310Z,44.83
2019-05-02T09:18:16.031Z,42.73
2019-05-02T09:20:46.900Z,42.27
2019-05-02T09:23:16.672Z,31.60
2019-05-02T09:25:43.183Z,31.97
2019-05-02T09:28:09.668Z,33.50
2019-05-02T09:30:36.256Z,35.33
2019-05-02T09:33:06.571Z,34.77
2019-05-02T09:35:32.814Z,36.20
2019-05-02T09:38:01.633Z,36.50
2019-05-02T09:40:27.913Z,37.30
2019-05-02T09:42:58.536Z,33.60
2019-05-02T09:45:35.782Z,34.13
2019-05-02T09:48:04.591Z,36.23
2019-05-02T09:50:31.230Z,35.63
2019-05-02T09:52:53.967Z,33.47
2019-05-02T09:55:22.466Z,40.07
2019-05-02T09:57:49.203Z,38.80
2019-05-02T10:00:48.758Z,38.50
2019-05-02T10:03:15.953Z,35.43
2019-05-02T10:05:43.215Z,35.50
2019-05-02T10:08:13.477Z,31.97
2019-05-02T10:10:44.137Z,30.50
2019-05-02T10:13:07.631Z,29.83
2019-05-02T10:15:34.191Z,33.10
2019-05-02T10:18:08.768Z,30.93
2019-05-02T10:20:31.807Z,33.90
2019-05-02T10:22:58.462Z,31.53
2019-05-02T10:25:25.131Z,31.00
2019-05-02T10:27:52.319Z,30.20
2019-05-02T10:30:21.704Z,30.50
2019-05-02T10:32:52.916Z,29.30
2019-05-02T10:35:19.070Z,30.63
2019-05-02T10:37:45.550Z,31.37
2019-05-02T10:40:15.483Z,35.23
2019-05-02T10:42:41.926Z,31.53
2019-05-02T10:45:12.962Z,33.03
2019-05-02T10:47:38.320Z,35.13
2019-05-02T10:50:11.735Z,33.63
2019-05-02T10:52:38.358Z,30.83
2019-05-02T10:55:05.237Z,32.10
2019-05-02T10:57:32.616Z,31.73
2019-05-02T10:59:59.674Z,29.33
2019-05-02T11:02:53.302Z,33.30
2019-05-02T11:05:24.663Z,26.17
2019-05-02T11:07:49.221Z,33.07
2019-05-02T11:10:16.977Z,29.40
2019-05-02T11:12:49.994Z,29.47
2019-05-02T11:15:35.218Z,29.20
2019-05-02T11:18:02.298Z,32.77
2019-05-02T11:20:28.930Z,27.93
2019-05-02T11:22:55.704Z,28.30
2019-05-02T11:25:22.590Z,29.07
2019-05-02T11:27:49.215Z,21.53
2019-05-02T11:30:16.826Z,28.23
2019-05-02T11:32:44.773Z,23.77
2019-05-02T11:35:12.245Z,25.30
2019-05-02T11:37:39.245Z,22.10
2019-05-02T11:40:07.745Z,21.40
2019-05-02T11:42:35.228Z,20.73
2019-05-02T11:45:02.704Z,22.03
2019-05-02T11:47:29.388Z,20.70
2019-05-02T11:49:56.133Z,23.53
2019-05-02T11:52:22.815Z,22.00
2019-05-02T11:54:49.439Z,23.30
2019-05-02T11:57:16.143Z,23.87
2019-05-02T11:59:42.668Z,21.27
2019-05-02T12:02:31.904Z,22.30
2019-05-02T12:04:58.449Z,22.57
2019-05-02T12:07:25.033Z,21.50
2019-05-02T12:09:56.909Z,18.53
2019-05-02T12:12:20.135Z,20.17
2019-05-02T12:14:46.669Z,18.77
2019-05-02T12:17:13.451Z,19.93
2019-05-02T12:19:42.605Z,18.77
2019-05-02T12:22:12.944Z,19.23
2019-05-02T12:24:40.903Z,21.50
2019-05-02T12:27:06.109Z,25.37
2019-05-02T12:29:33.511Z,15.60
2019-05-02T12:32:00.123Z,13.40
2019-05-02T12:34:26.749Z,15.43
2019-05-02T12:36:53.686Z,11.77
2019-05-02T12:39:22.137Z,13.63
2019-05-02T12:41:49.236Z,12.53
2019-05-02T12:44:15.842Z,15.60
2019-05-02T12:46:42.487Z,12.97
2019-05-02T12:49:21.807Z,15.37
2019-05-02T12:51:37.325Z,14.83
2019-05-02T12:54:03.966Z,14.33
2019-05-02T12:56:32.391Z,12.00
2019-05-02T12:58:59.050Z,14.00
2019-05-02T13:01:25.626Z,13.70
2019-05-02T13:03:58.341Z,12.43
2019-05-02T13:06:25.037Z,12.10
2019-05-02T13:08:52.529Z,14.53
2019-05-02T13:11:42.231Z,16.40
2019-05-02T13:14:18.396Z,14.20
2019-05-02T13:16:36.617Z,13.17
2019-05-02T13:19:06.185Z,12.13
2019-05-02T13:21:41.790Z,12.27
2019-05-02T13:24:24.587Z,14.43
2019-05-02T13:26:59.533Z,11.67
2019-05-02T13:29:22.472Z,10.00
2019-05-02T13:32:16.973Z,17.63
2019-05-02T13:34:48.660Z,20.13
2019-05-02T13:37:16.368Z,15.27
2019-05-02T13:39:53.044Z,23.03
2019-05-02T13:42:21.853Z,12.07
2019-05-02T13:44:58.045Z,16.67
2019-05-02T13:47:25.001Z,17.13
2019-05-02T13:49:56.365Z,17.03
2019-05-02T13:52:19.951Z,16.87
2019-05-02T13:54:46.879Z,12.83
2019-05-02T13:57:13.342Z,14.20
2019-05-02T13:59:41.682Z,12.77
2019-05-02T14:02:31.649Z,12.73
2019-05-02T14:04:58.993Z,12.00
2019-05-02T14:07:25.472Z,13.13
2019-05-02T14:09:58.235Z,13.30
2019-05-02T14:12:52.876Z,14.43
2019-05-02T14:15:26.386Z,16.33
2019-05-02T14:17:53.467Z,16.13
2019-05-02T14:20:22.347Z,15.67
2019-05-02T14:22:49.323Z,10.70
2019-05-02T14:25:16.024Z,13.93
2019-05-02T14:27:46.759Z,13.43
2019-05-02T14:30:15.619Z,11.77
2019-05-02T14:32:42.576Z,13.27
2019-05-02T14:35:24.142Z,14.33
2019-05-02T14:38:07.564Z,13.93
2019-05-02T14:40:34.930Z,13.37
2019-05-02T14:43:03.374Z,12.17
2019-05-02T14:45:31.475Z,13.37
2019-05-02T14:48:15.549Z,12.40
2019-05-02T14:50:27.405Z,11.67
2019-05-02T14:52:55.832Z,14.37
2019-05-02T14:55:25.594Z,11.27
2019-05-02T14:57:52.631Z,12.23
2019-05-02T15:00:22.181Z,13.03
2019-05-02T15:02:49.535Z,12.57
2019-05-02T15:05:19.412Z,15.23
2019-05-02T15:07:45.034Z,11.10
2019-05-02T15:10:12.784Z,11.63
2019-05-02T15:12:39.588Z,15.70
2019-05-02T15:15:06.911Z,14.30
2019-05-02T15:17:37.739Z,12.90
2019-05-02T15:20:02.827Z,14.67
2019-05-02T15:22:33.161Z,12.20
2019-05-02T15:24:58.175Z,14.17
2019-05-02T15:27:24.757Z,15.00
2019-05-02T15:29:53.875Z,14.20
2019-05-02T15:32:29.137Z,14.53
2019-05-02T15:35:17.615Z,14.93
2019-05-02T15:37:42.715Z,11.17
2019-05-02T15:42:49.649Z,11.00
2019-05-02T15:45:20.388Z,12.83
2019-05-02T15:47:46.929Z,14.77
2019-05-02T15:50:21.376Z,11.87
2019-05-02T15:52:46.716Z,13.70
2019-05-02T15:55:13.301Z,12.70
2019-05-02T15:57:43.676Z,13.13
2019-05-02T16:00:17.138Z,10.37
2019-05-02T16:02:39.714Z,13.77
2019-05-02T16:05:08.877Z,14.80
2019-05-02T16:07:38.014Z,14.57
2019-05-02T16:10:04.573Z,13.03
2019-05-02T16:12:32.069Z,13.67
2019-05-02T16:14:59.529Z,11.63
2019-05-02T16:17:28.208Z,11.33
2019-05-02T16:19:58.807Z,11.17
2019-05-02T16:22:38.287Z,12.13
2019-05-02T16:25:04.093Z,14.17
2019-05-02T16:27:46.603Z,11.77
2019-05-02T16:30:15.444Z,12.17
2019-05-02T16:32:46.412Z,12.40
2019-05-02T16:35:17.352Z,9.83
2019-05-02T16:37:46.788Z,14.30
2019-05-02T16:40:12.016Z,10.63
2019-05-02T16:42:38.699Z,13.83
2019-05-02T16:45:07.377Z,12.10
2019-05-02T16:47:34.155Z,12.50
2019-05-02T16:50:02.496Z,11.47
2019-05-02T16:52:29.095Z,13.53
2019-05-02T16:54:55.860Z,12.23
2019-05-02T16:57:23.806Z,13.60
2019-05-02T16:59:55.860Z,13.23
2019-05-02T17:02:18.945Z,13.77
2019-05-02T17:04:54.242Z,13.47
2019-05-02T17:07:27.869Z,13.40
2019-05-02T17:10:02.904Z,14.87
2019-05-02T17:12:29.605Z,18.67
2019-05-02T17:15:14.834Z,18.80
2019-05-02T17:17:42.335Z,17.37
2019-05-02T17:20:12.934Z,16.97
2019-05-02T17:22:37.776Z,16.10
2019-05-02T17:25:05.975Z,17.17
2019-05-02T17:27:33.199Z,17.73
2019-05-02T17:30:01.433Z,15.37
2019-05-02T17:32:28.961Z,14.73
2019-05-02T17:34:55.428Z,19.17
2019-05-02T17:37:22.297Z,16.00
2019-05-02T17:39:48.801Z,17.03
2019-05-02T17:42:16.970Z,14.77
2019-05-02T17:44:44.012Z,15.73
2019-05-02T17:47:10.895Z,15.10
2019-05-02T17:49:37.465Z,15.40
2019-05-02T17:52:26.808Z,19.63
2019-05-02T17:54:52.867Z,18.57
2019-05-02T17:57:21.447Z,16.13
2019-05-02T17:59:47.822Z,16.33
2019-05-02T18:02:16.014Z,15.50
2019-05-02T18:04:46.561Z,16.57
2019-05-02T18:07:11.745Z,15.37
2019-05-02T18:09:38.295Z,16.47
2019-05-02T18:12:07.180Z,18.53
2019-05-02T18:14:33.506Z,16.57
2019-05-02T18:17:01.847Z,15.53
2019-05-02T18:19:32.783Z,16.20
2019-05-02T18:22:03.512Z,14.50
2019-05-02T18:24:28.460Z,15.13
2019-05-02T18:26:55.325Z,13.07
2019-05-02T18:29:22.166Z,17.43
2019-05-02T18:31:49.187Z,15.13
2019-05-02T18:34:21.009Z,15.43
2019-05-02T18:36:44.273Z,14.97
2019-05-02T18:39:13.009Z,12.07
2019-05-02T18:41:42.706Z,12.03
2019-05-02T18:44:11.820Z,12.33
2019-05-02T18:46:41.683Z,10.93
2019-05-02T18:49:08.217Z,10.73
2019-05-02T18:51:34.965Z,13.10
2019-05-02T18:54:04.352Z,13.83
2019-05-02T18:56:35.592Z,11.50
2019-05-02T18:59:02.512Z,11.73
2019-05-02T19:01:28.702Z,11.53
2019-05-02T19:03:56.334Z,13.43
2019-05-02T19:06:23.484Z,13.77
2019-05-02T19:08:52.589Z,11.80
2019-05-02T19:11:19.505Z,14.33
2019-05-02T19:13:56.781Z,12.47
2019-05-02T19:16:24.909Z,13.30
2019-05-02T19:18:55.837Z,14.10
2019-05-02T19:21:26.357Z,16.27
2019-05-02T19:23:52.972Z,14.53
2019-05-02T19:26:22.123Z,14.07
2019-05-02T19:28:57.006Z,13.30
2019-05-02T19:31:27.309Z,13.07
2019-05-02T19:33:55.513Z,14.03
2019-05-02T19:36:27.425Z,16.47
2019-05-02T19:38:56.895Z,15.87
2019-05-02T19:41:24.445Z,14.83
2019-05-02T19:43:51.479Z,13.10
2019-05-02T19:46:24.494Z,13.50
2019-05-02T19:48:48.352Z,14.50
2019-05-02T19:51:18.483Z,13.23
2019-05-02T19:53:43.833Z,15.13
2019-05-02T19:56:12.820Z,14.33
2019-05-02T19:58:42.797Z,13.93
2019-05-02T20:01:08.162Z,13.47
2019-05-02T20:03:35.736Z,11.23
2019-05-02T20:06:06.204Z,14.27
2019-05-02T20:08:32.935Z,14.67
2019-05-02T20:10:59.560Z,14.30
2019-05-02T20:13:30.609Z,11.60
2019-05-02T20:16:06.016Z,14.53
2019-05-02T20:18:34.851Z,13.50
2019-05-02T20:21:28.530Z,14.27
2019-05-02T20:23:55.065Z,14.20
2019-05-02T20:26:22.176Z,12.80
2019-05-02T20:28:48.777Z,13.97
2019-05-02T20:31:15.505Z,16.63
2019-05-02T20:33:43.013Z,13.27
2019-05-02T20:36:12.181Z,13.23
2019-05-02T20:38:38.515Z,11.90
2019-05-02T20:41:05.309Z,13.90
2019-05-02T20:43:32.276Z,14.40
2019-05-02T20:45:59.106Z,15.00
2019-05-02T20:48:25.742Z,13.77
2019-05-02T20:50:52.231Z,13.50
2019-05-02T20:53:30.708Z,12.30
2019-05-02T20:55:47.093Z,14.83
2019-05-02T20:58:13.590Z,19.07
2019-05-02T21:00:40.194Z,20.97
2019-05-02T21:03:06.680Z,23.23
2019-05-02T21:05:42.765Z,23.63
2019-05-02T21:08:47.137Z,23.27
2019-05-02T21:11:13.694Z,23.77
2019-05-02T21:13:41.853Z,26.50
2019-05-02T21:16:08.575Z,25.57
2019-05-02T21:18:35.048Z,26.17
2019-05-02T21:21:01.503Z,29.10
2019-05-02T21:23:40.644Z,31.00
2019-05-02T21:25:56.569Z,25.90
2019-05-02T21:28:23.023Z,29.63
2019-05-02T21:30:49.584Z,29.60
2019-05-02T21:33:32.155Z,32.23
2019-05-02T21:35:58.602Z,36.83
2019-05-02T21:38:25.403Z,35.17
2019-05-02T21:40:52.678Z,35.67
2019-05-02T21:43:19.130Z,37.67
2019-05-02T21:45:45.885Z,33.77
2019-05-02T21:48:12.361Z,43.13
2019-05-02T21:50:45.301Z,35.37
2019-05-02T21:53:33.681Z,40.00
2019-05-02T21:56:25.508Z,39.00
2019-05-02T21:59:04.570Z,38.73
2019-05-02T22:01:35.199Z,36.83
2019-05-02T22:04:06.904Z,39.43
2019-05-02T22:06:33.382Z,40.40
2019-05-02T22:08:59.914Z,37.30
2019-05-02T22:11:28.566Z,43.13
2019-05-02T22:13:55.148Z,39.80
2019-05-02T22:16:21.955Z,42.37
2019-05-02T22:18:48.592Z,41.40
2019-05-02T22:21:15.292Z,40.67
2019-05-02T22:23:42.593Z,42.77
2019-05-02T22:26:10.163Z,42.73
2019-05-02T22:28:36.693Z,45.80
2019-05-02T22:31:03.469Z,46.27
2019-05-02T22:33:30.063Z,45.07
2019-05-02T22:35:56.565Z,44.30
2019-05-02T22:38:39.675Z,44.53
2019-05-02T22:41:06.167Z,44.70
2019-05-02T22:43:32.817Z,44.67
2019-05-02T22:45:59.316Z,48.13
2019-05-02T22:48:25.839Z,46.83
2019-05-02T22:50:52.460Z,45.53
2019-05-02T22:53:21.482Z,44.17
2019-05-02T22:55:47.931Z,42.00
2019-05-02T22:58:14.459Z,47.70
2019-05-02T23:00:41.657Z,42.60
2019-05-02T23:03:09.464Z,42.03
2019-05-02T23:05:36.483Z,45.43
2019-05-02T23:08:03.451Z,44.50
2019-05-02T23:10:30.016Z,45.77
2019-05-02T23:12:56.801Z,45.73
2019-05-02T23:15:23.354Z,47.53
2019-05-02T23:17:52.178Z,41.60
2019-05-02T23:20:18.502Z,43.10
2019-05-02T23:22:45.019Z,45.17
2019-05-02T23:25:42.581Z,44.20
2019-05-02T23:28:13.856Z,45.73
2019-05-02T23:30:42.427Z,43.23
2019-05-02T23:33:09.588Z,42.70
2019-05-02T23:35:36.124Z,42.47
2019-05-02T23:38:02.719Z,43.27
2019-05-02T23:40:30.303Z,40.17
2019-05-02T23:42:56.813Z,37.13
2019-05-02T23:45:24.401Z,34.97
2019-05-02T23:47:52.695Z,31.80
2019-05-02T23:50:19.478Z,30.23
2019-05-02T23:52:46.055Z,30.27
2019-05-02T23:55:12.967Z,30.73
2019-05-02T23:57:41.876Z,25.47
